Time;durP1;ratioP1;P1;durP2;ratioP2;P2;SDS_P1;SDS_P2;PMS_P1;PMS_P2;Temp;Humidity;BMP_temperature;BMP_pressure;BME280_temperature;BME280_humidity;BME280_pressure;Samples;Min_cycle;Max_cycle;Signal;HPM_P1;HPM_P2
2022/04/21 00:00:16;;;;;;;2.07;1.50;;;;;19.30;100304.00;;;;2071029;28;20246;-46
2022/04/21 00:01:16;;;;;;;1.90;1.20;;;;;19.30;100310.00;;;;2076551;28;20214;-46
2022/04/21 00:02:16;;;;;;;1.40;1.30;;;;;19.30;100299.00;;;;2079152;28;20221;-46
2022/04/21 00:03:17;;;;;;;1.37;1.23;;;;;19.30;100302.00;;;;2079450;28;20717;-46
2022/04/21 00:04:17;;;;;;;1.57;1.47;;;;;19.30;100300.00;;;;2078657;28;20602;-46
2022/04/21 00:05:18;;;;;;;1.10;1.00;;;;;19.20;100320.00;;;;2078359;28;20294;-46
2022/04/21 00:06:18;;;;;;;1.20;1.10;;;;;19.30;100295.00;;;;2078688;28;20236;-46
2022/04/21 00:07:18;;;;;;;1.20;1.10;;;;;19.30;100300.00;;;;2072456;28;20222;-46
2022/04/21 00:08:20;;;;;;;1.87;1.67;;;;;19.20;100290.00;;;;2070788;28;20226;-46
2022/04/21 00:09:20;;;;;;;1.50;1.38;;;;;19.30;100296.00;;;;2076234;28;20220;-47
2022/04/21 00:10:22;;;;;;;1.40;1.30;;;;;19.30;100299.00;;;;2079299;28;20690;-46
2022/04/21 00:11:22;;;;;;;1.65;1.55;;;;;19.30;100297.00;;;;2078999;28;20686;-45
2022/04/21 00:12:23;;;;;;;1.67;1.40;;;;;19.30;100294.00;;;;2079437;28;20263;-46
2022/04/21 00:13:23;;;;;;;1.13;1.03;;;;;19.30;100300.00;;;;2079159;28;20713;-46
2022/04/21 00:14:24;;;;;;;1.40;1.30;;;;;19.30;100290.00;;;;2078955;28;20217;-46
2022/04/21 00:15:24;;;;;;;1.40;1.27;;;;;19.30;100295.00;;;;2078452;28;20236;-46
2022/04/21 00:16:25;;;;;;;1.40;1.27;;;;;19.30;100293.00;;;;2079340;28;20220;-46
2022/04/21 00:17:25;;;;;;;1.60;1.50;;;;;19.30;100293.00;;;;2078097;28;20210;-46
2022/04/21 00:18:25;;;;;;;1.20;1.10;;;;;19.20;100291.00;;;;2079167;28;20283;-46
2022/04/21 00:19:26;;;;;;;1.40;1.30;;;;;19.30;100289.00;;;;2079169;28;20572;-46
2022/04/21 00:20:26;;;;;;;1.70;1.60;;;;;19.20;100281.00;;;;2079095;28;20267;-46
2022/04/21 00:23:25;;;;;;;1.23;1.10;;;;;19.20;100282.00;;;;2079167;28;20225;-46
2022/04/21 00:24:05;;;;;;;1.60;1.50;;;;;19.20;100281.00;;;;2073086;28;20214;-47
2022/04/21 00:25:06;;;;;;;1.37;1.27;;;;;19.20;100280.00;;;;2070261;28;20297;-46
2022/04/21 00:26:07;;;;;;;1.30;1.20;;;;;19.20;100288.00;;;;2070172;28;20220;-46
2022/04/21 00:27:07;;;;;;;1.90;1.70;;;;;19.20;100285.00;;;;2070044;28;21043;-46
2022/04/21 00:28:07;;;;;;;1.20;1.10;;;;;19.20;100272.00;;;;2069841;28;20699;-47
2022/04/21 00:29:08;;;;;;;1.40;1.20;;;;;19.20;100274.00;;;;2070861;28;20621;-46
2022/04/21 00:30:09;;;;;;;1.50;1.40;;;;;19.20;100277.00;;;;2070923;28;20217;-46
2022/04/21 00:31:09;;;;;;;1.50;1.40;;;;;19.20;100277.00;;;;2071040;28;20218;-46
2022/04/21 00:32:10;;;;;;;1.30;1.20;;;;;19.20;100258.00;;;;2071210;28;20499;-46
2022/04/21 00:33:10;;;;;;;1.57;1.30;;;;;19.20;100276.00;;;;2070223;28;20741;-45
2022/04/21 00:34:10;;;;;;;1.50;1.40;;;;;19.20;100276.00;;;;2070276;28;20714;-47
2022/04/21 00:35:14;;;;;;;1.60;1.50;;;;;19.20;100278.00;;;;2070171;28;21011;-47
2022/04/21 00:36:14;;;;;;;2.38;1.30;;;;;19.20;100283.00;;;;2073488;28;20248;-46
2022/04/21 00:37:14;;;;;;;1.50;1.30;;;;;19.20;100275.00;;;;2078870;28;20720;-46
2022/04/21 00:38:15;;;;;;;1.47;1.30;;;;;19.20;100278.00;;;;2078857;28;20231;-46
2022/04/21 00:39:15;;;;;;;1.30;1.20;;;;;19.20;100294.00;;;;2079041;28;20232;-46
2022/04/21 00:40:17;;;;;;;1.37;1.10;;;;;19.20;100282.00;;;;2078954;28;20705;-46
2022/04/21 00:41:17;;;;;;;1.45;1.35;;;;;19.20;100276.00;;;;2078889;28;20210;-46
2022/04/21 00:42:17;;;;;;;1.83;1.30;;;;;19.20;100270.00;;;;2079086;28;20237;-46
2022/04/21 00:43:18;;;;;;;1.63;1.40;;;;;19.20;100270.00;;;;2078898;28;20209;-46
2022/04/21 00:44:18;;;;;;;1.17;1.07;;;;;19.20;100271.00;;;;2078859;28;20209;-46
2022/04/21 00:45:18;;;;;;;1.47;1.37;;;;;19.20;100275.00;;;;2069035;28;20210;-47
2022/04/21 00:46:19;;;;;;;1.77;1.43;;;;;19.00;100269.00;;;;2069968;28;20225;-46
2022/04/21 00:47:20;;;;;;;1.40;1.30;;;;;19.20;100271.00;;;;2069644;28;20214;-47
2022/04/21 00:48:20;;;;;;;1.20;1.10;;;;;19.20;100285.00;;;;2069683;28;20218;-46
2022/04/21 00:49:21;;;;;;;1.50;1.33;;;;;19.20;100272.00;;;;2073278;28;20267;-47
2022/04/21 00:50:27;;;;;;;1.60;1.40;;;;;19.20;100270.00;;;;2068028;28;20233;-46
2022/04/21 00:51:27;;;;;;;1.40;1.30;;;;;19.20;100272.00;;;;2069733;28;20453;-46
2022/04/21 00:52:27;;;;;;;2.10;1.50;;;;;19.20;100265.00;;;;2077971;28;20367;-47
2022/04/21 00:53:28;;;;;;;1.40;1.30;;;;;19.20;100260.00;;;;2077965;28;20270;-46
2022/04/21 00:54:30;;;;;;;1.40;1.30;;;;;19.20;100263.00;;;;2069470;28;20222;-46
2022/04/21 00:55:31;;;;;;;1.10;1.00;;;;;19.20;100268.00;;;;2076713;28;20210;-47
2022/04/21 00:56:31;;;;;;;1.20;1.00;;;;;19.20;100270.00;;;;2074969;28;20718;-46
2022/04/21 00:57:31;;;;;;;1.63;1.53;;;;;19.20;100268.00;;;;2078234;28;20244;-46
2022/04/21 00:58:32;;;;;;;1.43;1.33;;;;;19.20;100268.00;;;;2077659;28;20214;-46
2022/04/21 00:59:32;;;;;;;1.27;1.17;;;;;19.20;100266.00;;;;2068748;28;20225;-47
2022/04/21 01:00:33;;;;;;;1.40;1.30;;;;;19.20;100267.00;;;;2077848;28;20213;-46
2022/04/21 01:02:54;;;;;;;1.50;1.35;;;;;19.20;100276.00;;;;2080185;28;20248;-46
2022/04/21 01:03:55;;;;;;;1.52;1.42;;;;;19.20;100254.00;;;;2069398;28;20690;-47
2022/04/21 01:04:55;;;;;;;2.22;1.30;;;;;19.20;100268.00;;;;2054092;28;20207;-46
2022/04/21 01:05:56;;;;;;;1.30;1.20;;;;;19.20;100268.00;;;;2068822;28;20226;-45
2022/04/21 01:06:57;;;;;;;1.40;1.27;;;;;19.20;100269.00;;;;2073852;28;20218;-46
2022/04/21 01:08:04;;;;;;;1.40;1.30;;;;;19.20;100271.00;;;;2072681;28;20226;-46
2022/04/21 01:09:05;;;;;;;1.58;1.00;;;;;19.20;100268.00;;;;2078356;28;20447;-46
2022/04/21 01:10:06;;;;;;;1.43;1.13;;;;;19.20;100270.00;;;;2078036;28;20756;-46
2022/04/21 01:11:06;;;;;;;1.40;1.20;;;;;19.20;100273.00;;;;2078928;28;20604;-46
2022/04/21 01:12:09;;;;;;;1.40;1.30;;;;;19.20;100258.00;;;;2078741;28;20448;-46
2022/04/21 01:13:10;;;;;;;1.15;1.05;;;;;19.20;100277.00;;;;2077585;28;20205;-46
2022/04/21 01:14:12;;;;;;;1.30;1.20;;;;;19.20;100267.00;;;;2077948;28;20217;-47
2022/04/21 01:15:12;;;;;;;1.40;1.30;;;;;19.20;100280.00;;;;2078145;28;20460;-46
2022/04/21 01:16:12;;;;;;;1.40;1.23;;;;;19.20;100278.00;;;;2077306;28;20733;-46
2022/04/21 01:17:13;;;;;;;2.40;1.63;;;;;19.20;100282.00;;;;2078553;28;20221;-46
2022/04/21 01:18:13;;;;;;;1.60;1.50;;;;;19.20;100272.00;;;;2078627;28;20230;-48
2022/04/21 01:19:14;;;;;;;1.53;1.40;;;;;19.20;100268.00;;;;2078760;28;20468;-47
2022/04/21 01:20:16;;;;;;;1.60;1.50;;;;;19.20;100271.00;;;;2078642;28;20224;-45
2022/04/21 01:21:17;;;;;;;1.25;1.15;;;;;19.20;100264.00;;;;2073827;28;20264;-46
2022/04/21 01:22:17;;;;;;;1.40;1.20;;;;;19.20;100269.00;;;;2070203;28;20210;-46
2022/04/21 01:23:17;;;;;;;1.57;1.47;;;;;19.20;100274.00;;;;2076133;28;20234;-46
2022/04/21 01:24:18;;;;;;;1.67;1.57;;;;;19.20;100268.00;;;;2078071;28;20240;-46
2022/04/21 01:25:19;;;;;;;1.50;1.30;;;;;19.20;100272.00;;;;2078024;28;20244;-46
2022/04/21 01:26:19;;;;;;;1.60;1.50;;;;;19.20;100276.00;;;;2077943;28;20902;-46
2022/04/21 01:27:22;;;;;;;1.67;1.40;;;;;19.20;100267.00;;;;2077865;28;20213;-47
2022/04/21 01:28:25;;;;;;;1.45;1.27;;;;;19.20;100269.00;;;;2077683;28;20213;-47
2022/04/21 01:29:27;;;;;;;1.70;1.60;;;;;19.20;100265.00;;;;2077542;28;20241;-46
2022/04/21 01:30:28;;;;;;;1.50;1.40;;;;;19.20;100263.00;;;;2077146;28;20244;-47
2022/04/21 01:31:29;;;;;;;1.77;1.40;;;;;19.20;100268.00;;;;2071504;28;20233;-46
2022/04/21 01:32:31;;;;;;;1.83;1.10;;;;;19.20;100273.00;;;;2070089;28;20233;-46
2022/04/21 01:33:32;;;;;;;1.33;1.23;;;;;19.20;100267.00;;;;2070213;28;20294;-47
2022/04/21 01:34:33;;;;;;;1.50;1.40;;;;;19.20;100261.00;;;;2070110;28;20215;-46
2022/04/21 01:35:34;;;;;;;1.63;1.20;;;;;19.20;100251.00;;;;2076249;28;20221;-46
2022/04/21 01:36:34;;;;;;;1.30;1.20;;;;;19.20;100261.00;;;;2078150;28;20268;-46
2022/04/21 01:41:31;;;;;;;1.70;1.60;;;;;19.20;100253.00;;;;2070548;28;20226;-46
2022/04/21 01:42:32;;;;;;;2.00;1.60;;;;;19.20;100246.00;;;;2070893;28;20222;-47
2022/04/21 01:43:32;;;;;;;1.60;1.50;;;;;19.20;100248.00;;;;2070485;28;20242;-45
2022/04/21 01:44:32;;;;;;;1.50;1.20;;;;;19.20;100237.00;;;;2070632;28;20229;-46
2022/04/21 01:45:33;;;;;;;1.47;1.37;;;;;19.10;100234.00;;;;2070115;28;20268;-46
2022/04/21 01:46:33;;;;;;;1.60;1.30;;;;;19.20;100244.00;;;;2071868;28;20218;-46
2022/04/21 01:47:34;;;;;;;1.50;1.40;;;;;19.20;100240.00;;;;2078603;28;20275;-46
2022/04/21 01:48:34;;;;;;;1.30;1.20;;;;;19.20;100245.00;;;;2078757;28;20210;-46
2022/04/21 01:49:34;;;;;;;1.30;1.20;;;;;19.10;100265.00;;;;2078698;28;20702;-46
2022/04/21 01:50:35;;;;;;;1.63;1.43;;;;;19.20;100244.00;;;;2074084;28;20683;-47
2022/04/21 01:51:35;;;;;;;1.30;1.20;;;;;19.20;100245.00;;;;2070612;28;20292;-46
2022/04/21 01:52:36;;;;;;;1.93;1.37;;;;;19.20;100240.00;;;;2069898;28;20222;-46
2022/04/21 01:53:37;;;;;;;1.70;1.50;;;;;19.20;100242.00;;;;2071000;28;20245;-46
2022/04/21 01:54:37;;;;;;;1.40;1.30;;;;;19.20;100239.00;;;;2071496;28;20609;-46
2022/04/21 01:55:37;;;;;;;1.87;1.30;;;;;19.20;100240.00;;;;2076853;28;20220;-46
2022/04/21 01:56:38;;;;;;;1.63;1.53;;;;;19.20;100233.00;;;;2079888;28;20217;-45
2022/04/21 01:57:38;;;;;;;1.50;1.40;;;;;19.20;100242.00;;;;2080134;28;20324;-46
2022/04/21 01:58:39;;;;;;;1.33;1.23;;;;;19.20;100238.00;;;;2080239;28;20217;-46
2022/04/21 01:59:39;;;;;;;1.73;1.33;;;;;19.10;100233.00;;;;2080343;28;20213;-45
2022/04/21 02:00:40;;;;;;;1.27;1.17;;;;;19.20;100240.00;;;;2080250;28;20268;-46
2022/04/21 02:01:40;;;;;;;1.20;1.10;;;;;19.20;100236.00;;;;2073102;28;20784;-46
2022/04/21 02:02:40;;;;;;;1.47;1.33;;;;;19.20;100241.00;;;;2072155;28;20218;-46
2022/04/21 02:03:41;;;;;;;1.53;1.30;;;;;19.20;100241.00;;;;2072194;28;20248;-46
2022/04/21 02:04:41;;;;;;;1.33;1.23;;;;;19.10;100243.00;;;;2071797;28;20214;-47
2022/04/21 02:05:41;;;;;;;1.57;1.27;;;;;19.10;100246.00;;;;2074395;28;20221;-46
2022/04/21 02:06:42;;;;;;;1.53;1.43;;;;;19.10;100246.00;;;;2080099;28;20592;-47
2022/04/21 02:07:44;;;;;;;1.30;1.20;;;;;19.10;100240.00;;;;2080133;28;20764;-47
2022/04/21 02:08:46;;;;;;;1.83;1.30;;;;;19.10;100237.00;;;;2080277;28;20686;-46
2022/04/21 02:09:47;;;;;;;1.60;1.30;;;;;19.20;100235.00;;;;2079623;28;20217;-46
2022/04/21 02:10:47;;;;;;;1.37;1.23;;;;;19.10;100238.00;;;;2079262;28;20202;-46
2022/04/21 02:11:48;;;;;;;1.43;1.33;;;;;19.10;100246.00;;;;2079600;28;20217;-46
2022/04/21 02:12:49;;;;;;;1.40;1.30;;;;;19.10;100244.00;;;;2079962;28;20556;-46
2022/04/21 02:13:49;;;;;;;1.43;1.17;;;;;19.10;100240.00;;;;2080054;28;20268;-46
2022/04/21 02:14:49;;;;;;;1.10;1.00;;;;;19.10;100242.00;;;;2071078;28;20231;-45
2022/04/21 02:15:50;;;;;;;1.33;1.23;;;;;19.10;100232.00;;;;2071277;28;20234;-48
2022/04/21 02:16:50;;;;;;;1.43;1.33;;;;;19.10;100230.00;;;;2071793;28;20225;-46
2022/04/21 02:17:51;;;;;;;1.80;1.30;;;;;19.10;100229.00;;;;2071849;28;20218;-47
2022/04/21 02:18:51;;;;;;;1.33;1.23;;;;;19.10;100238.00;;;;2070949;28;20218;-46
2022/04/21 02:19:52;;;;;;;1.30;1.20;;;;;19.10;100237.00;;;;2071025;28;20679;-46
2022/04/21 02:20:52;;;;;;;1.50;1.40;;;;;19.10;100235.00;;;;2071958;28;20210;-47
2022/04/21 02:21:52;;;;;;;1.30;1.20;;;;;19.10;100231.00;;;;2072286;28;20242;-47
2022/04/21 02:22:52;;;;;;;1.40;1.30;;;;;19.10;100234.00;;;;2072139;28;20265;-47
2022/04/21 02:23:53;;;;;;;1.50;1.37;;;;;19.10;100231.00;;;;2071983;28;20210;-46
2022/04/21 02:24:53;;;;;;;1.30;1.20;;;;;19.10;100238.00;;;;2070725;28;20293;-46
2022/04/21 02:25:53;;;;;;;1.60;1.50;;;;;19.10;100222.00;;;;2071540;28;20210;-46
2022/04/21 02:26:54;;;;;;;1.40;1.30;;;;;19.10;100224.00;;;;2071859;28;20265;-46
2022/04/21 02:27:54;;;;;;;1.40;1.30;;;;;19.10;100235.00;;;;2071911;28;20218;-46
2022/04/21 02:28:55;;;;;;;1.50;1.20;;;;;19.10;100235.00;;;;2071878;28;20297;-46
2022/04/21 02:29:55;;;;;;;1.63;1.47;;;;;19.20;100228.00;;;;2074301;28;20683;-46
2022/04/21 02:30:55;;;;;;;1.83;1.57;;;;;19.10;100236.00;;;;2079962;28;20723;-46
2022/04/21 02:31:56;;;;;;;1.20;1.10;;;;;19.10;100234.00;;;;2079863;28;20205;-46
2022/04/21 02:32:56;;;;;;;1.30;1.20;;;;;19.10;100229.00;;;;2080266;28;20236;-46
2022/04/21 02:33:56;;;;;;;1.33;1.23;;;;;19.10;100230.00;;;;2079885;28;20209;-46
2022/04/21 02:34:57;;;;;;;1.33;1.23;;;;;19.10;100235.00;;;;2080030;28;20217;-45
2022/04/21 02:35:57;;;;;;;1.40;1.30;;;;;19.10;100233.00;;;;2078491;28;20209;-47
2022/04/21 02:36:57;;;;;;;1.40;1.30;;;;;19.10;100236.00;;;;2079198;28;20216;-46
2022/04/21 02:37:58;;;;;;;1.30;1.20;;;;;19.10;100230.00;;;;2078829;28;20225;-46
2022/04/21 02:38:58;;;;;;;1.43;1.23;;;;;19.10;100225.00;;;;2079816;28;20245;-46
2022/04/21 02:39:58;;;;;;;2.23;1.53;;;;;19.10;100227.00;;;;2079799;28;20209;-46
2022/04/21 02:40:59;;;;;;;2.10;1.60;;;;;19.10;100232.00;;;;2079745;28;20244;-46
2022/04/21 02:42:00;;;;;;;1.47;1.30;;;;;19.10;100235.00;;;;2079861;28;20210;-45
2022/04/21 02:43:00;;;;;;;1.50;1.40;;;;;19.10;100235.00;;;;2073039;28;20214;-46
2022/04/21 02:44:01;;;;;;;2.03;1.27;;;;;19.10;100231.00;;;;2071175;28;20245;-46
2022/04/21 02:45:01;;;;;;;1.47;1.17;;;;;19.10;100220.00;;;;2070884;28;20222;-45
2022/04/21 02:46:02;;;;;;;1.77;1.30;;;;;19.10;100230.00;;;;2070421;28;20214;-47
2022/04/21 02:47:03;;;;;;;1.30;1.20;;;;;19.10;100222.00;;;;2070527;28;20238;-46
2022/04/21 02:48:04;;;;;;;1.60;1.50;;;;;19.10;100219.00;;;;2070394;28;20213;-46
2022/04/21 02:49:04;;;;;;;1.23;1.13;;;;;19.10;100215.00;;;;2070444;28;20214;-47
2022/04/21 02:50:05;;;;;;;1.33;1.23;;;;;19.10;100227.00;;;;2070629;28;20226;-46
2022/04/21 02:51:06;;;;;;;1.40;1.30;;;;;19.10;100213.00;;;;2070570;28;20305;-46
2022/04/21 02:52:07;;;;;;;1.30;1.20;;;;;19.10;100221.00;;;;2074115;28;20218;-46
2022/04/21 02:53:07;;;;;;;1.10;1.00;;;;;19.10;100226.00;;;;2079333;28;20634;-46
2022/04/21 02:58:04;;;;;;;1.58;1.48;;;;;19.10;100215.00;;;;2078973;28;20624;-47
2022/04/21 02:59:05;;;;;;;1.53;1.30;;;;;19.10;100226.00;;;;2071645;28;20206;-46
2022/04/21 03:00:06;;;;;;;1.50;1.40;;;;;19.10;100233.00;;;;2071877;28;20218;-46
2022/04/21 03:01:06;;;;;;;1.40;1.30;;;;;19.10;100219.00;;;;2071328;28;20603;-47
2022/04/21 03:02:07;;;;;;;1.43;1.10;;;;;19.10;100216.00;;;;2071691;28;20206;-46
2022/04/21 03:03:07;;;;;;;1.53;1.43;;;;;19.10;100223.00;;;;2071709;28;20299;-46
2022/04/21 03:04:07;;;;;;;1.73;1.57;;;;;19.10;100233.00;;;;2070898;28;20821;-46
2022/04/21 03:05:08;;;;;;;1.37;1.27;;;;;19.10;100141.00;;;;2069805;28;20225;-46
2022/04/21 03:06:11;;;;;;;1.50;1.40;;;;;19.10;100224.00;;;;2070796;28;20210;-47
2022/04/21 03:07:13;;;;;;;1.23;1.13;;;;;19.10;100223.00;;;;2071108;28;20218;-46
2022/04/21 03:08:13;;;;;;;1.48;1.38;;;;;19.10;100219.00;;;;2071576;28;20301;-46
2022/04/21 03:09:13;;;;;;;1.30;1.20;;;;;19.10;100222.00;;;;2071618;28;20248;-46
2022/04/21 03:10:14;;;;;;;1.33;1.23;;;;;19.10;100224.00;;;;2071585;28;20719;-46
2022/04/21 03:11:14;;;;;;;1.50;1.40;;;;;19.10;100218.00;;;;2070836;28;20332;-46
2022/04/21 03:12:14;;;;;;;1.60;1.30;;;;;19.10;100220.00;;;;2076739;28;20271;-46
2022/04/21 03:13:15;;;;;;;1.60;1.50;;;;;19.10;100226.00;;;;2072590;28;20272;-47
2022/04/21 03:14:15;;;;;;;1.57;1.40;;;;;19.10;100221.00;;;;2071283;28;20254;-46
2022/04/21 03:15:15;;;;;;;1.33;1.20;;;;;19.10;100222.00;;;;2071427;28;20287;-47
2022/04/21 03:16:16;;;;;;;1.70;1.40;;;;;19.10;100215.00;;;;2073143;28;20227;-47
2022/04/21 03:17:16;;;;;;;1.30;1.20;;;;;19.10;100217.00;;;;2079094;28;20237;-47
2022/04/21 03:18:19;;;;;;;2.10;1.63;;;;;19.10;100219.00;;;;2079509;28;20220;-46
2022/04/21 03:19:19;;;;;;;2.47;1.38;;;;;19.10;100218.00;;;;2079544;28;20244;-47
2022/04/21 03:24:20;;;;;;;1.50;1.38;;;;;19.10;100213.00;;;;2074576;28;20253;-46
2022/04/21 03:25:21;;;;;;;2.55;1.60;;;;;19.10;100215.00;;;;2073527;28;20210;-46
2022/04/21 03:26:21;;;;;;;1.93;1.40;;;;;19.10;100218.00;;;;2076031;28;20222;-46
2022/04/21 03:27:21;;;;;;;1.87;1.20;;;;;19.10;100213.00;;;;2071896;28;21284;-46
2022/04/21 03:28:22;;;;;;;1.40;1.20;;;;;19.10;100214.00;;;;2079628;28;20583;-46
2022/04/21 03:29:23;;;;;;;1.60;1.33;;;;;19.10;100217.00;;;;2079448;28;20218;-46
2022/04/21 03:30:23;;;;;;;1.30;1.20;;;;;19.10;100210.00;;;;2079219;28;20742;-46
2022/04/21 03:31:23;;;;;;;1.40;1.30;;;;;19.10;100216.00;;;;2078979;28;20216;-46
2022/04/21 03:32:26;;;;;;;1.63;1.53;;;;;19.10;100222.00;;;;2079610;28;20618;-45
2022/04/21 03:33:28;;;;;;;1.30;1.20;;;;;19.10;100223.00;;;;2079441;28;20217;-46
2022/04/21 03:34:28;;;;;;;1.60;1.40;;;;;19.10;100237.00;;;;2079130;28;20230;-47
2022/04/21 03:35:28;;;;;;;1.30;1.20;;;;;19.10;100222.00;;;;2070757;28;20608;-47
2022/04/21 03:36:29;;;;;;;1.40;1.30;;;;;19.10;100223.00;;;;2071351;28;20763;-45
2022/04/21 03:37:29;;;;;;;1.60;1.50;;;;;19.10;100226.00;;;;2071113;28;20725;-46
2022/04/21 03:38:29;;;;;;;1.37;1.17;;;;;19.10;100227.00;;;;2074846;28;20213;-47
2022/04/21 03:39:30;;;;;;;1.40;1.30;;;;;19.10;100226.00;;;;2079235;28;20271;-46
2022/04/21 03:40:30;;;;;;;1.60;1.50;;;;;19.10;100231.00;;;;2079603;28;20263;-46
2022/04/21 03:41:30;;;;;;;1.97;1.00;;;;;19.10;100225.00;;;;2078830;28;20741;-47
2022/04/21 03:42:31;;;;;;;1.70;1.43;;;;;19.10;100225.00;;;;2078931;28;21084;-47
2022/04/21 03:43:32;;;;;;;1.73;1.63;;;;;19.10;100228.00;;;;2079449;28;20760;-46
2022/04/21 03:44:32;;;;;;;1.37;1.27;;;;;19.10;100227.00;;;;2079331;28;20456;-47
2022/04/21 03:45:33;;;;;;;1.40;1.30;;;;;19.10;100227.00;;;;2078702;28;20264;-46
2022/04/21 03:46:34;;;;;;;1.10;1.00;;;;;19.10;100227.00;;;;2079324;28;20272;-46
2022/04/21 03:47:34;;;;;;;1.70;1.60;;;;;19.10;100228.00;;;;2078942;28;20989;-46
2022/04/21 03:48:35;;;;;;;1.47;1.37;;;;;19.10;100226.00;;;;2079441;28;20709;-46
2022/04/21 03:49:35;;;;;;;1.63;1.53;;;;;19.10;100232.00;;;;2079340;28;20213;-46
2022/04/21 03:50:36;;;;;;;1.50;1.23;;;;;19.10;100231.00;;;;2079439;28;20456;-46
2022/04/21 03:51:36;;;;;;;1.70;1.50;;;;;19.10;100230.00;;;;2079098;28;20272;-46
2022/04/21 03:52:36;;;;;;;1.30;1.20;;;;;19.10;100226.00;;;;2079311;28;20230;-46
2022/04/21 03:53:36;;;;;;;1.67;1.17;;;;;19.10;100224.00;;;;2079424;28;20210;-46
2022/04/21 03:54:37;;;;;;;1.43;1.30;;;;;19.10;100231.00;;;;2079521;28;20206;-46
2022/04/21 03:55:38;;;;;;;1.67;1.50;;;;;19.10;100223.00;;;;2071172;28;20229;-46
2022/04/21 03:56:38;;;;;;;2.17;1.57;;;;;19.10;100231.00;;;;2070755;28;20221;-46
2022/04/21 03:57:38;;;;;;;1.53;1.33;;;;;19.10;100228.00;;;;2071045;28;20214;-47
2022/04/21 03:58:39;;;;;;;1.33;1.23;;;;;19.10;100226.00;;;;2071147;28;20217;-47
2022/04/21 03:59:39;;;;;;;1.43;1.30;;;;;19.10;100223.00;;;;2070965;28;20214;-47
2022/04/21 04:00:39;;;;;;;1.50;1.40;;;;;19.10;100224.00;;;;2075368;28;20224;-47
2022/04/21 04:01:40;;;;;;;1.63;1.50;;;;;19.10;100226.00;;;;2079273;28;20294;-47
2022/04/21 04:02:41;;;;;;;1.20;1.10;;;;;19.10;100229.00;;;;2079258;28;20233;-47
2022/04/21 04:03:42;;;;;;;1.47;1.20;;;;;19.10;100226.00;;;;2079200;28;20299;-47
2022/04/21 04:04:42;;;;;;;1.80;1.42;;;;;19.10;100231.00;;;;2079184;28;20221;-47
2022/04/21 04:05:43;;;;;;;1.30;1.20;;;;;19.10;100226.00;;;;2078479;28;20213;-47
2022/04/21 04:10:52;;;;;;;1.58;1.48;;;;;19.10;100220.00;;;;2079205;28;20209;-47
2022/04/21 04:11:52;;;;;;;1.73;1.55;;;;;19.10;100216.00;;;;2079148;28;20267;-47
2022/04/21 04:12:53;;;;;;;1.30;1.20;;;;;19.10;100216.00;;;;2079328;28;20314;-47
2022/04/21 04:13:53;;;;;;;1.63;1.50;;;;;19.10;100216.00;;;;2078889;28;20221;-48
2022/04/21 04:14:54;;;;;;;1.50;1.40;;;;;19.10;100218.00;;;;2079152;28;20225;-46
2022/04/21 04:15:54;;;;;;;1.43;1.33;;;;;19.00;100221.00;;;;2078007;28;20218;-47
2022/04/21 04:16:55;;;;;;;1.33;1.23;;;;;19.10;100213.00;;;;2079140;28;20296;-47
2022/04/21 04:17:55;;;;;;;1.43;1.30;;;;;19.10;100221.00;;;;2078705;28;20288;-47
2022/04/21 04:18:56;;;;;;;1.70;1.60;;;;;19.10;100219.00;;;;2078742;28;20464;-46
2022/04/21 04:19:56;;;;;;;1.50;1.40;;;;;19.10;100215.00;;;;2071928;28;20237;-47
2022/04/21 04:20:56;;;;;;;1.50;1.40;;;;;19.10;100215.00;;;;2074535;28;20289;-47
2022/04/21 04:21:57;;;;;;;1.63;1.53;;;;;19.10;100219.00;;;;2063403;28;20214;-46
2022/04/21 04:22:57;;;;;;;1.30;1.20;;;;;19.10;100218.00;;;;2065185;28;20237;-47
2022/04/21 04:23:58;;;;;;;1.93;1.50;;;;;19.00;100222.00;;;;2070940;28;20297;-47
2022/04/21 04:24:58;;;;;;;1.47;1.37;;;;;19.10;100215.00;;;;2070690;28;20218;-47
2022/04/21 04:25:59;;;;;;;1.67;1.43;;;;;19.10;100075.00;;;;2070346;28;20465;-46
2022/04/21 04:26:59;;;;;;;1.40;1.27;;;;;19.00;100215.00;;;;2070658;28;20648;-47
2022/04/21 04:28:00;;;;;;;1.60;1.50;;;;;19.10;100213.00;;;;2070896;28;20762;-47
2022/04/21 04:29:00;;;;;;;1.50;1.40;;;;;19.10;100223.00;;;;2070955;28;20206;-47
2022/04/21 04:30:00;;;;;;;1.90;1.40;;;;;19.10;100217.00;;;;2070167;28;20238;-47
2022/04/21 04:31:01;;;;;;;1.43;1.33;;;;;19.00;100210.00;;;;2070173;28;20214;-47
2022/04/21 04:32:01;;;;;;;1.40;1.30;;;;;19.10;100220.00;;;;2070052;28;20237;-47
2022/04/21 04:33:01;;;;;;;1.23;1.10;;;;;19.10;100217.00;;;;2071115;28;20218;-47
2022/04/21 04:34:02;;;;;;;1.60;1.50;;;;;19.00;100214.00;;;;2070890;28;20272;-47
2022/04/21 04:35:03;;;;;;;1.67;1.43;;;;;19.00;100215.00;;;;2070661;28;20268;-47
2022/04/21 04:36:03;;;;;;;1.50;1.40;;;;;19.10;100214.00;;;;2070292;28;20284;-47
2022/04/21 04:37:04;;;;;;;1.90;1.60;;;;;19.10;100219.00;;;;2070387;28;20217;-47
2022/04/21 04:38:04;;;;;;;1.30;1.20;;;;;19.00;100218.00;;;;2070929;28;20239;-46
2022/04/21 04:39:04;;;;;;;1.50;1.40;;;;;19.00;100214.00;;;;2070906;28;20221;-47
2022/04/21 04:40:05;;;;;;;3.40;1.30;;;;;19.00;100211.00;;;;2070807;28;20233;-46
2022/04/21 04:42:25;;;;;;;1.52;1.35;;;;;19.00;100215.00;;;;2072626;28;20218;-47
2022/04/21 04:43:27;;;;;;;1.60;1.50;;;;;19.00;100219.00;;;;2070881;28;20207;-47
2022/04/21 04:44:28;;;;;;;1.30;1.20;;;;;19.00;100224.00;;;;2070534;28;20773;-46
2022/04/21 04:46:47;;;;;;;2.45;1.50;;;;;19.00;100220.00;;;;2078907;28;20220;-47
2022/04/21 04:47:47;;;;;;;1.30;1.20;;;;;19.10;100230.00;;;;2078776;28;20702;-47
2022/04/21 04:48:48;;;;;;;1.23;1.13;;;;;19.00;100228.00;;;;2078641;28;20693;-47
2022/04/21 04:49:48;;;;;;;1.40;1.30;;;;;19.00;100229.00;;;;2078763;28;20678;-47
2022/04/21 04:50:48;;;;;;;1.50;1.40;;;;;19.00;100233.00;;;;2078030;28;20218;-47
2022/04/21 04:51:49;;;;;;;1.70;1.40;;;;;19.00;100231.00;;;;2078255;28;20575;-47
2022/04/21 04:52:49;;;;;;;2.00;1.47;;;;;19.00;100230.00;;;;2078789;28;20644;-47
2022/04/21 04:53:49;;;;;;;1.70;1.47;;;;;19.00;100226.00;;;;2078943;28;20214;-47
2022/04/21 04:54:50;;;;;;;2.60;1.80;;;;;19.00;100235.00;;;;2078997;28;20754;-46
2022/04/21 04:55:50;;;;;;;2.30;1.67;;;;;19.00;100233.00;;;;2077858;28;20767;-47
2022/04/21 04:56:51;;;;;;;1.60;1.20;;;;;19.00;100226.00;;;;2078530;28;20213;-47
2022/04/21 04:57:51;;;;;;;1.60;1.50;;;;;19.10;100226.00;;;;2078754;28;20685;-47
2022/04/21 04:58:55;;;;;;;1.50;1.40;;;;;19.00;100229.00;;;;2078760;28;20249;-47
2022/04/21 04:59:55;;;;;;;1.42;1.33;;;;;19.00;100228.00;;;;2078773;28;20209;-47
2022/04/21 05:00:55;;;;;;;1.87;1.77;;;;;19.10;100219.00;;;;2078701;28;20232;-47
2022/04/21 05:01:56;;;;;;;1.50;1.40;;;;;19.10;100225.00;;;;2078901;28;20205;-47
2022/04/21 05:02:56;;;;;;;1.33;1.10;;;;;19.00;100227.00;;;;2076085;28;20645;-47
2022/04/21 05:04:03;;;;;;;1.93;1.17;;;;;19.00;100225.00;;;;2078690;28;20216;-47
2022/04/21 05:05:05;;;;;;;1.63;1.52;;;;;19.00;100231.00;;;;2078778;28;20217;-47
2022/04/21 05:06:05;;;;;;;1.95;1.40;;;;;19.00;100222.00;;;;2077922;28;20217;-47
2022/04/21 05:07:05;;;;;;;1.50;1.40;;;;;19.10;100226.00;;;;2078412;28;20224;-47
2022/04/21 05:08:06;;;;;;;1.17;1.07;;;;;19.00;100227.00;;;;2078378;28;20216;-47
2022/04/21 05:09:07;;;;;;;2.07;1.50;;;;;19.00;100225.00;;;;2078857;28;20240;-46
2022/04/21 05:10:08;;;;;;;1.80;1.70;;;;;19.00;100225.00;;;;2078884;28;20297;-46
2022/04/21 05:11:09;;;;;;;1.50;1.40;;;;;19.00;100232.00;;;;2078590;28;20226;-47
2022/04/21 05:12:10;;;;;;;1.98;1.45;;;;;19.00;100229.00;;;;2078321;28;20436;-46
2022/04/21 05:13:11;;;;;;;1.70;1.60;;;;;19.00;100251.00;;;;2070184;28;20683;-46
2022/04/21 05:14:11;;;;;;;1.83;1.58;;;;;19.00;100226.00;;;;2070007;28;20612;-47
2022/04/21 05:15:12;;;;;;;1.77;1.47;;;;;19.00;100230.00;;;;2069982;28;20233;-47
2022/04/21 05:16:12;;;;;;;3.63;1.70;;;;;19.00;100231.00;;;;2068907;28;20910;-47
2022/04/21 05:17:12;;;;;;;1.90;1.80;;;;;19.00;100230.00;;;;2069362;28;20218;-46
2022/04/21 05:18:13;;;;;;;1.97;1.77;;;;;19.00;100224.00;;;;2075761;28;20733;-45
2022/04/21 05:19:15;;;;;;;1.30;1.20;;;;;19.10;100227.00;;;;2078451;28;20580;-47
2022/04/21 05:20:16;;;;;;;1.70;1.60;;;;;19.00;100219.00;;;;2078754;28;20245;-46
2022/04/21 05:21:17;;;;;;;1.50;1.37;;;;;19.00;100222.00;;;;2070310;28;20217;-45